This is the latest recevied weather packets stored in our database for station/object KI4HRG. If no packets are shown the sender has not sent any weather packets the latest 10 day(s).
| Time | Temp. | Humidity | Pressure | Rain* | Wind** | Luminosity | Snow |
|---|---|---|---|---|---|---|---|
| 1777997568 | 22.78° C | 65% | 1014.9 hPa | 0 mm | - | 247 W/m² | - |
| 1777997265 | 22.78° C | 65% | 1015 hPa | 0 mm | - | 189 W/m² | - |
| 1777996963 | 22.78° C | 63% | 1014.9 hPa | 0 mm | - | 212 W/m² | - |
| 1777996658 | 22.78° C | 63% | 1014.8 hPa | 0 mm | - | 854 W/m² | - |
| 1777996355 | 22.78° C | 64% | 1014.8 hPa | 0 mm | - | 829 W/m² | - |
| 1777996051 | 22.22° C | 66% | 1014.9 hPa | 0 mm | - | 787 W/m² | - |
| 1777995748 | 22.22° C | 63% | 1015.1 hPa | 0 mm | - | 195 W/m² | - |
| 1777995444 | 23.33° C | 62% | 1015 hPa | 0 mm | - | 567 W/m² | - |
| 1777995141 | 23.33° C | 63% | 1015.1 hPa | 0 mm | - | 806 W/m² | - |
| 1777994838 | 22.22° C | 63% | 1015.1 hPa | 0 mm | - | 727 W/m² | - |
| 1777994535 | 23.33° C | 62% | 1015.1 hPa | 0 mm | - | 787 W/m² | - |
| 1777994229 | 23.33° C | 62% | 1015.2 hPa | 0 mm | - | 806 W/m² | - |
| 1777993927 | 22.78° C | 62% | 1015 hPa | 0 mm | - | 769 W/m² | - |
| 1777993623 | 22.22° C | 64% | 1015.2 hPa | 0 mm | - | 806 W/m² | - |
| 1777993320 | 21.67° C | 66% | 1015.2 hPa | 0 mm | - | 775 W/m² | - |
| 1777993015 | 21.67° C | 65% | 1015.4 hPa | 0 mm | - | 723 W/m² | - |
| 1777992714 | 20.56° C | 68% | 1015.2 hPa | 0 mm | - | 703 W/m² | - |
| 1777992411 | 21.11° C | 68% | 1015.2 hPa | 0 mm | - | 706 W/m² | - |
| 1777992109 | 21.11° C | 67% | 1015.3 hPa | 0 mm | - | 689 W/m² | - |
| 1777991806 | 20.56° C | 69% | 1015.2 hPa | 0 mm | - | 629 W/m² | - |
| 1777991503 | 20.56° C | 70% | 1015.2 hPa | 0 mm | - | 622 W/m² | - |
| 1777991200 | 20.56° C | 69% | 1015.2 hPa | 0 mm | - | 623 W/m² | - |
| 1777990898 | 20.56° C | 69% | 1015.2 hPa | 0 mm | - | 611 W/m² | - |
| 1777990595 | 20.56° C | 70% | 1015.4 hPa | 0 mm | - | 581 W/m² | - |
| 1777989988 | 20° C | 69% | 1015.2 hPa | 0 mm | - | 534 W/m² | - |
* Rain latest hour (hover to see other rain measurements)
** Current wind speed in m/s (hover to see current wind gust speed)